TimeCDT,TemperatureF,Dew PointF,Humidity,Sea Level PressureIn,VisibilityMPH,Wind Direction,Wind SpeedMPH,Gust SpeedMPH,PrecipitationIn,Events,Conditions,WindDirDegrees,DateUTC
12:15 AM,35.6,23.0,60,30.30,10.0,North,3.5,-,N/A,,Clear,360,2013-04-03 05:15:00
12:35 AM,35.6,21.2,56,30.30,10.0,North,3.5,-,N/A,,Clear,10,2013-04-03 05:35:00
12:55 AM,35.6,21.2,56,30.30,10.0,Calm,Calm,-,N/A,,Clear,0,2013-04-03 05:55:00
1:15 AM,33.8,23.0,65,30.30,10.0,Calm,Calm,-,N/A,,Clear,0,2013-04-03 06:15:00
1:35 AM,33.8,23.0,65,30.31,10.0,North,3.5,-,N/A,,Clear,350,2013-04-03 06:35:00
1:55 AM,32.0,26.6,80,30.31,10.0,Calm,Calm,-,N/A,,Clear,0,2013-04-03 06:55:00
2:15 AM,32.0,26.6,80,30.29,10.0,Calm,Calm,-,N/A,,Clear,0,2013-04-03 07:15:00
2:35 AM,32.0,28.4,87,30.30,10.0,Calm,Calm,-,N/A,,Clear,0,2013-04-03 07:35:00
2:55 AM,32.0,26.6,80,30.29,10.0,Calm,Calm,-,N/A,,Clear,0,2013-04-03 07:55:00
3:15 AM,32.0,26.6,80,30.28,10.0,North,3.5,-,N/A,,Clear,360,2013-04-03 08:15:00
3:35 AM,32.0,24.8,75,30.28,10.0,North,3.5,-,N/A,,Clear,360,2013-04-03 08:35:00
3:55 AM,32.0,24.8,75,30.29,10.0,Calm,Calm,-,N/A,,Clear,0,2013-04-03 08:55:00
4:15 AM,32.0,28.4,87,30.29,10.0,Calm,Calm,-,N/A,,Clear,0,2013-04-03 09:15:00
4:35 AM,30.2,24.8,80,30.28,10.0,North,6.9,-,N/A,,Clear,360,2013-04-03 09:35:00
4:55 AM,32.0,23.0,69,30.27,10.0,North,5.8,-,N/A,,Clear,10,2013-04-03 09:55:00
5:15 AM,32.0,23.0,69,30.28,10.0,North,3.5,-,N/A,,Clear,10,2013-04-03 10:15:00
5:35 AM,32.0,23.0,69,30.28,10.0,North,5.8,-,N/A,,Clear,10,2013-04-03 10:35:00
5:55 AM,32.0,23.0,69,30.29,10.0,North,5.8,-,N/A,,Clear,10,2013-04-03 10:55:00
6:15 AM,32.0,23.0,69,30.30,10.0,NNE,5.8,-,N/A,,Clear,20,2013-04-03 11:15:00
6:35 AM,32.0,23.0,69,30.33,10.0,North,3.5,-,N/A,,Clear,10,2013-04-03 11:35:00
6:55 AM,32.0,23.0,69,30.35,10.0,Calm,Calm,-,N/A,,Clear,0,2013-04-03 11:55:00
7:15 AM,32.0,24.8,75,30.36,10.0,Calm,Calm,-,N/A,,Clear,0,2013-04-03 12:15:00
7:35 AM,32.0,28.4,87,30.37,10.0,Calm,Calm,-,N/A,,Clear,0,2013-04-03 12:35:00
7:55 AM,32.0,30.2,93,30.37,10.0,Calm,Calm,-,N/A,,Clear,0,2013-04-03 12:55:00
8:15 AM,35.6,26.6,70,30.38,10.0,Calm,Calm,-,N/A,,Clear,0,2013-04-03 13:15:00
8:35 AM,37.4,24.8,60,30.38,10.0,ENE,3.5,-,N/A,,Clear,60,2013-04-03 13:35:00
8:55 AM,37.4,26.6,65,30.37,10.0,ENE,5.8,-,N/A,,Clear,60,2013-04-03 13:55:00
9:15 AM,39.2,26.6,61,30.37,10.0,ENE,5.8,-,N/A,,Clear,70,2013-04-03 14:15:00
9:35 AM,41.0,26.6,57,30.37,10.0,ENE,8.1,-,N/A,,Clear,60,2013-04-03 14:35:00
9:55 AM,42.8,26.6,53,30.37,10.0,ENE,8.1,-,N/A,,Clear,70,2013-04-03 14:55:00
10:15 AM,42.8,26.6,53,30.36,10.0,East,10.4,-,N/A,,Clear,80,2013-04-03 15:15:00
10:35 AM,44.6,26.6,49,30.36,10.0,ENE,10.4,-,N/A,,Clear,70,2013-04-03 15:35:00
10:55 AM,46.4,26.6,46,30.36,10.0,NE,10.4,-,N/A,,Clear,50,2013-04-03 15:55:00
11:15 AM,46.4,24.8,43,30.36,10.0,ENE,12.7,17.3,N/A,,Clear,60,2013-04-03 16:15:00
11:35 AM,46.4,23.0,40,30.36,10.0,ENE,11.5,19.6,N/A,,Clear,70,2013-04-03 16:35:00
11:55 AM,48.2,24.8,40,30.34,10.0,East,10.4,-,N/A,,Clear,90,2013-04-03 16:55:00
12:15 PM,48.2,23.0,37,30.33,10.0,ENE,6.9,18.4,N/A,,Clear,60,2013-04-03 17:15:00
12:35 PM,50.0,23.0,35,30.33,10.0,NE,13.8,-,N/A,,Clear,40,2013-04-03 17:35:00
12:55 PM,50.0,23.0,35,30.33,10.0,ENE,13.8,17.3,N/A,,Clear,70,2013-04-03 17:55:00
1:15 PM,50.0,23.0,35,30.33,10.0,NE,13.8,18.4,N/A,,Clear,50,2013-04-03 18:15:00
1:35 PM,50.0,23.0,35,30.32,10.0,NE,12.7,-,N/A,,Clear,50,2013-04-03 18:35:00
1:55 PM,50.0,24.8,37,30.32,10.0,East,11.5,18.4,N/A,,Clear,80,2013-04-03 18:55:00
2:15 PM,51.8,26.6,38,30.32,10.0,East,12.7,16.1,N/A,,Clear,80,2013-04-03 19:15:00
2:35 PM,50.0,24.8,37,30.32,10.0,East,9.2,-,N/A,,Clear,80,2013-04-03 19:35:00
2:55 PM,50.0,24.8,37,30.32,10.0,East,16.1,19.6,N/A,,Clear,80,2013-04-03 19:55:00
3:15 PM,51.8,24.8,35,30.31,10.0,ENE,13.8,17.3,N/A,,Clear,60,2013-04-03 20:15:00
3:35 PM,50.0,23.0,35,30.31,10.0,East,12.7,-,N/A,,Clear,80,2013-04-03 20:35:00
3:55 PM,50.0,24.8,37,30.30,10.0,East,12.7,19.6,N/A,,Clear,100,2013-04-03 20:55:00
4:15 PM,50.0,23.0,35,30.29,10.0,ENE,10.4,-,N/A,,Clear,70,2013-04-03 21:15:00
4:35 PM,50.0,23.0,35,30.27,10.0,ENE,10.4,-,N/A,,Clear,70,2013-04-03 21:35:00
4:55 PM,50.0,26.6,40,30.27,10.0,East,12.7,-,N/A,,Clear,90,2013-04-03 21:55:00
5:15 PM,50.0,24.8,37,30.27,10.0,East,15.0,-,N/A,,Clear,90,2013-04-03 22:15:00
5:35 PM,50.0,23.0,35,30.27,10.0,East,11.5,-,N/A,,Clear,80,2013-04-03 22:35:00
5:55 PM,50.0,23.0,35,30.27,10.0,East,10.4,-,N/A,,Clear,80,2013-04-03 22:55:00
6:15 PM,50.0,23.0,35,30.26,10.0,East,9.2,-,N/A,,Clear,80,2013-04-03 23:15:00
6:35 PM,48.2,23.0,37,30.26,10.0,East,10.4,-,N/A,,Clear,80,2013-04-03 23:35:00
6:55 PM,48.2,23.0,37,30.26,10.0,ENE,6.9,-,N/A,,Clear,70,2013-04-03 23:55:00
7:15 PM,46.4,26.6,46,30.25,10.0,ENE,6.9,-,N/A,,Clear,70,2013-04-04 00:15:00
7:35 PM,46.4,24.8,43,30.25,10.0,ENE,5.8,-,N/A,,Clear,60,2013-04-04 00:35:00
7:55 PM,44.6,24.8,46,30.25,10.0,ENE,5.8,-,N/A,,Clear,60,2013-04-04 00:55:00
8:15 PM,44.6,23.0,43,30.26,10.0,ENE,3.5,-,N/A,,Clear,60,2013-04-04 01:15:00
8:35 PM,44.6,24.8,46,30.26,10.0,NE,4.6,-,N/A,,Clear,50,2013-04-04 01:35:00
8:55 PM,44.6,24.8,46,30.27,10.0,NE,4.6,-,N/A,,Clear,50,2013-04-04 01:55:00
9:15 PM,42.8,28.4,57,30.27,10.0,NE,4.6,-,N/A,,Clear,40,2013-04-04 02:15:00
9:35 PM,44.6,24.8,46,30.27,10.0,NE,6.9,-,N/A,,Clear,50,2013-04-04 02:35:00
9:55 PM,44.6,24.8,46,30.27,10.0,NE,6.9,-,N/A,,Clear,40,2013-04-04 02:55:00
10:15 PM,44.6,23.0,43,30.26,10.0,NE,6.9,-,N/A,,Clear,50,2013-04-04 03:15:00
10:35 PM,42.8,24.8,49,30.26,10.0,NE,6.9,-,N/A,,Clear,50,2013-04-04 03:35:00
10:55 PM,42.8,26.6,53,30.25,10.0,NE,8.1,-,N/A,,Clear,50,2013-04-04 03:55:00
11:15 PM,42.8,26.6,53,30.25,10.0,NE,6.9,-,N/A,,Clear,50,2013-04-04 04:15:00
11:35 PM,42.8,26.6,53,30.25,10.0,NE,6.9,-,N/A,,Clear,40,2013-04-04 04:35:00
11:55 PM,42.8,26.6,53,30.24,10.0,NE,6.9,-,N/A,,Clear,50,2013-04-04 04:55:00